EHGR/GLZ METAR and TAF weather

Enter ICAO airport designator
Station Type Date Time Source
EHGR METAR 2018/04/27 00:55 UTC NOAA

EHGR 270055Z AUTO 19006KT 9999 OVC180 05/03 Q1015 BLU


Station Type Date Time Source
EHGR Decoded METAR 2018/04/27 00:55 UTC NOAA

Gilze-Rijen, Netherlands (EHGR) 51-34N 004-56E 24M
Apr 26, 2018 - 08:55 PM EDT / 2018.04.27 0055 UTC
Wind: from the S (190 degrees) at 7 MPH (6 KT):0
Visibility: greater than 7 mile(s):0
Sky conditions: overcast
Temperature: 41 F (5 C)
Dew Point: 37 F (3 C)
Relative Humidity: 86%
Pressure (altimeter): 29.97 in. Hg (1015 hPa)
ob: EHGR 270055Z AUTO 19006KT 9999 OVC180 05/03 Q1015 BLU
cycle: 1

Station Type Date Time Source
EHGR TAF 2018/04/26 17:09 UTC NOAA

TAF TAF EHGR 262203Z 2617/2705 CNL


Example: see airport list